Terminal Aerodrome Forecast
Issued by NWS Cleveland, OH

Home | Current Version | Previous Version | Text Only | Print | Product List | Glossary On
Versions: 1 2 3 4 5 6 7 8 9 10 11 12 13 14 15 16 17 18
000
FTUS41 KCLE 030529
TAFERI
TAF
KERI 030529Z 0306/0406 28012G20KT P6SM BKN020 OVC035
     FM030900 29009KT 6SM -SHRASN BKN018 OVC035
     FM031700 28014KT P6SM VCSH OVC025=

USA.gov is the U.S. government's official web portal to all federal, state and local government web resources and services.